Anvik Airport Anvik US
ICAO: PANV
IATA:
Category: Medium
Scheduled Services:

Elevation: 291 ft
TransAlt. 18000 ft.

Airport Communications:
AWOS 3:133.55
ANCHORAGE CNTR:135.7
KENAI RDO:122.4
CTAF/UNICOM:122.7

PANV Zoom In..

Runways:

(A) RW 17 length 4000 ft width 75 ft
---- / hdg 172

(B) RW 35 length 4000 ft width 75 ft
---- / hdg 352

Location; PANV
Day. 29 / Time. 08.56 Zulu
* Altimeter: 30.23
* Temperature: 11° c. 51.8°f.
* Wind from: 340° Speed 06 kn.
Dewpoint: 02° c.
Visibility: 10 Statute Miles.
Clouds: Clear (automated report).

PANV 290856Z AUTO 34006KT 10SM CLR 11/02 A3023 RMK AO2 SLP313 T01110022 401780033 58001 TSNO


Wind From 340°
Speed 06 kn.

 
 
jpsmedia worldairports.se 2020   terms of use